createdAt,value
2024-01-05T00:01:03.516Z,100637.38
2024-01-05T00:03:30.730Z,100639.22
2024-01-05T00:05:57.859Z,100636.75
2024-01-05T00:08:24.972Z,100633.41
2024-01-05T00:10:51.977Z,100639.53
2024-01-05T00:13:18.876Z,100634.44
2024-01-05T00:15:45.848Z,100640.56
2024-01-05T00:18:12.895Z,100641.50
2024-01-05T00:20:39.850Z,100634.56
2024-01-05T00:23:06.837Z,100636.19
2024-01-05T00:25:33.779Z,100639.28
2024-01-05T00:28:00.741Z,100628.78
2024-01-05T00:30:27.738Z,100625.28
2024-01-05T00:32:54.828Z,100636.22
2024-01-05T00:35:21.922Z,100630.19
2024-01-05T00:37:49.313Z,100627.59
2024-01-05T00:40:16.277Z,100624.09
2024-01-05T00:42:43.185Z,100624.97
2024-01-05T00:45:10.151Z,100619.00
2024-01-05T00:47:37.282Z,100619.22
2024-01-05T00:50:04.625Z,100621.06
2024-01-05T00:52:31.518Z,100605.56
2024-01-05T00:54:58.399Z,100623.00
2024-01-05T00:57:26.377Z,100617.09
2024-01-05T00:59:53.431Z,100622.34
2024-01-05T01:02:20.378Z,100624.19
2024-01-05T01:04:47.376Z,100626.81
2024-01-05T01:07:14.332Z,100627.75
2024-01-05T01:09:41.264Z,100630.41
2024-01-05T01:12:08.212Z,100628.56
2024-01-05T01:14:35.138Z,100636.53
2024-01-05T01:17:02.060Z,100635.66
2024-01-05T01:19:28.989Z,100639.09
2024-01-05T01:21:56.024Z,100645.16
2024-01-05T01:24:23.025Z,100649.50
2024-01-05T01:26:50.035Z,100640.09
2024-01-05T01:29:16.980Z,100641.81
2024-01-05T01:31:43.893Z,100646.16
2024-01-05T01:34:10.865Z,100641.81
2024-01-05T01:36:37.902Z,100642.69
2024-01-05T01:39:06.085Z,100636.75
2024-01-05T01:41:33.416Z,100635.09
2024-01-05T01:44:00.662Z,100637.50
2024-01-05T01:46:27.654Z,100628.72
2024-01-05T01:48:55.141Z,100627.59
2024-01-05T01:51:23.192Z,100614.22
2024-01-05T01:53:50.493Z,100623.66
2024-01-05T01:56:17.862Z,100617.59
2024-01-05T01:58:45.431Z,100625.44
2024-01-05T02:01:13.115Z,100627.28
2024-01-05T02:03:40.223Z,100624.81
2024-01-05T02:06:07.284Z,100627.50
2024-01-05T02:08:35.360Z,100635.31
2024-01-05T02:11:02.261Z,100631.91
2024-01-05T02:13:29.524Z,100625.09
2024-01-05T02:15:56.429Z,100626.91
2024-01-05T02:18:23.538Z,100621.81
2024-01-05T02:20:50.619Z,100625.31
2024-01-05T02:23:28.041Z,100626.19
2024-01-05T02:25:56.628Z,100616.63
2024-01-05T02:28:23.838Z,100622.84
2024-01-05T02:30:54.008Z,100622.88
2024-01-05T02:33:21.075Z,100624.66
2024-01-05T02:35:48.049Z,100617.53
2024-01-05T02:38:14.938Z,100610.91
2024-01-05T02:40:41.842Z,100613.59
2024-01-05T02:43:08.751Z,100610.25
2024-01-05T02:45:36.574Z,100598.06
2024-01-05T02:48:04.187Z,100610.31
2024-01-05T02:50:31.277Z,100608.59
2024-01-05T02:52:58.182Z,100603.50
2024-01-05T02:55:25.066Z,100607.81
2024-01-05T02:57:51.974Z,100600.97
2024-01-05T03:00:19.123Z,100605.25
2024-01-05T03:02:46.093Z,100600.88
2024-01-05T03:05:13.033Z,100605.06
2024-01-05T03:07:42.042Z,100602.34
2024-01-05T03:10:09.108Z,100608.22
2024-01-05T03:12:36.072Z,100611.63
2024-01-05T03:15:03.596Z,100605.63
2024-01-05T03:17:30.558Z,100603.03
2024-01-05T03:19:57.624Z,100600.22
2024-01-05T03:22:24.527Z,100597.34
2024-01-05T03:24:51.565Z,100595.44
2024-01-05T03:27:18.527Z,100598.97
2024-01-05T03:29:45.609Z,100594.81
2024-01-05T03:32:12.621Z,100598.34
2024-01-05T03:34:39.651Z,100599.28
2024-01-05T03:37:06.690Z,100595.00
2024-01-05T03:39:33.820Z,100596.72
2024-01-05T03:42:00.953Z,100593.28
2024-01-05T03:44:27.973Z,100595.00
2024-01-05T03:46:54.884Z,100594.13
2024-01-05T03:49:21.889Z,100594.13
2024-01-05T03:51:49.485Z,100582.06
2024-01-05T03:54:16.522Z,100573.59
2024-01-05T03:56:47.329Z,100572.78
2024-01-05T03:59:15.337Z,100572.78
2024-01-05T04:01:47.003Z,100577.06
2024-01-05T04:04:14.482Z,100574.47
2024-01-05T04:06:42.682Z,100589.09
2024-01-05T04:09:11.016Z,100579.66
2024-01-05T04:11:39.327Z,100578.88
2024-01-05T04:14:07.658Z,100579.75
2024-01-05T04:16:34.821Z,100579.00
2024-01-05T04:19:02.513Z,100579.00
2024-01-05T04:21:29.616Z,100573.66
2024-01-05T04:23:57.903Z,100568.34
2024-01-05T04:26:24.962Z,100575.50
2024-01-05T04:28:53.112Z,100583.25
2024-01-05T04:31:20.152Z,100580.69
2024-01-05T04:33:47.233Z,100564.22
2024-01-05T04:36:17.108Z,100571.28
2024-01-05T04:38:44.592Z,100567.56
2024-01-05T04:41:14.686Z,100572.00
2024-01-05T04:43:41.647Z,100570.19
2024-01-05T04:46:09.285Z,100566.63
2024-01-05T04:48:36.814Z,100566.69
2024-01-05T04:51:04.483Z,100564.84
2024-01-05T04:53:31.513Z,100572.78
2024-01-05T04:55:58.454Z,100558.97
2024-01-05T04:58:25.557Z,100559.75
2024-01-05T05:00:52.986Z,100553.84
2024-01-05T05:03:20.211Z,100551.25
2024-01-05T05:05:47.376Z,100556.47
2024-01-05T05:08:14.908Z,100551.25
2024-01-05T05:10:42.034Z,100550.41
2024-01-05T05:13:10.447Z,100556.31
2024-01-05T05:15:38.805Z,100544.84
2024-01-05T05:18:06.102Z,100544.94
2024-01-05T05:20:33.168Z,100546.66
2024-01-05T05:23:00.053Z,100534.50
2024-01-05T05:25:27.496Z,100535.25
2024-01-05T05:27:54.415Z,100540.19
2024-01-05T05:30:21.573Z,100542.50
2024-01-05T05:32:48.590Z,100542.47
2024-01-05T05:35:15.587Z,100538.28
2024-01-05T05:37:42.515Z,100533.09
2024-01-05T05:40:10.400Z,100541.47
2024-01-05T05:42:37.497Z,100539.13
2024-01-05T05:45:04.816Z,100546.84
2024-01-05T05:47:31.863Z,100559.72
2024-01-05T05:49:58.831Z,100554.16
2024-01-05T05:52:29.040Z,100558.72
2024-01-05T05:54:57.418Z,100556.13
2024-01-05T05:57:24.384Z,100551.00
2024-01-05T05:59:52.699Z,100550.22
2024-01-05T06:02:19.792Z,100558.00
2024-01-05T06:04:46.753Z,100547.50
2024-01-05T06:07:13.729Z,100547.50
2024-01-05T06:09:40.733Z,100541.56
2024-01-05T06:12:07.974Z,100541.38
2024-01-05T06:14:34.890Z,100531.56
2024-01-05T06:17:01.784Z,100537.69
2024-01-05T06:19:28.854Z,100546.91
2024-01-05T06:21:58.449Z,100547.66
2024-01-05T06:24:25.653Z,100548.38
2024-01-05T06:26:52.900Z,100551.78
2024-01-05T06:29:19.891Z,100536.81
2024-01-05T06:31:47.189Z,100557.78
2024-01-05T06:34:14.443Z,100552.63
2024-01-05T06:36:41.554Z,100562.94
2024-01-05T06:39:08.791Z,100552.63
2024-01-05T06:41:35.779Z,100565.56
2024-01-05T06:44:03.412Z,100559.59
2024-01-05T06:46:30.405Z,100553.66
2024-01-05T06:48:58.450Z,100558.88
2024-01-05T06:51:29.950Z,100545.78
2024-01-05T06:53:59.142Z,100557.19
2024-01-05T06:56:29.132Z,100551.94
2024-01-05T06:58:56.815Z,100560.78
2024-01-05T07:01:24.120Z,100560.84
2024-01-05T07:03:51.393Z,100559.16
2024-01-05T07:06:18.572Z,100551.47
2024-01-05T07:08:45.619Z,100554.97
2024-01-05T07:11:25.614Z,100557.50
2024-01-05T07:13:52.808Z,100555.72
2024-01-05T07:16:22.295Z,100558.06
2024-01-05T07:18:49.973Z,100567.72
2024-01-05T07:21:18.030Z,100558.91
2024-01-05T07:23:45.672Z,100571.84
2024-01-05T07:26:12.929Z,100579.75
2024-01-05T07:28:39.838Z,100580.66
2024-01-05T07:31:07.034Z,100569.34
2024-01-05T07:33:34.346Z,100565.22
2024-01-05T07:36:07.391Z,100557.44
2024-01-05T07:38:37.444Z,100561.75
2024-01-05T07:41:04.529Z,100563.44
2024-01-05T07:43:31.751Z,100572.88
2024-01-05T07:45:58.678Z,100575.44
2024-01-05T07:48:25.797Z,100576.31
2024-01-05T07:50:52.838Z,100563.41
2024-01-05T07:53:19.742Z,100572.97
2024-01-05T07:55:46.714Z,100572.00
2024-01-05T07:58:13.679Z,100570.38
2024-01-05T08:00:40.874Z,100573.81
2024-01-05T08:03:08.008Z,100571.22
2024-01-05T08:05:34.965Z,100579.88
2024-01-05T08:08:01.942Z,100579.03
2024-01-05T08:10:28.951Z,100578.22
2024-01-05T08:12:56.314Z,100585.03
2024-01-05T08:15:23.309Z,100579.88
2024-01-05T08:17:50.258Z,100591.81
2024-01-05T08:20:17.215Z,100594.41
2024-01-05T08:22:44.138Z,100596.16
2024-01-05T08:25:11.108Z,100592.72
2024-01-05T08:27:38.961Z,100597.91
2024-01-05T08:30:08.581Z,100601.31
2024-01-05T08:32:35.882Z,100603.00
2024-01-05T08:35:02.822Z,100616.47
2024-01-05T08:37:29.738Z,100605.53
2024-01-05T08:39:56.709Z,100609.69
2024-01-05T08:42:23.649Z,100611.16
2024-01-05T08:44:51.831Z,100611.06
2024-01-05T08:47:19.082Z,100607.50
2024-01-05T08:49:46.050Z,100610.81
2024-01-05T08:52:13.281Z,100623.53
2024-01-05T08:54:41.652Z,100629.44
2024-01-05T08:57:11.643Z,100629.34
2024-01-05T08:59:40.210Z,100633.44
2024-01-05T09:02:07.506Z,100631.53
2024-01-05T09:04:34.617Z,100629.63
2024-01-05T09:07:01.661Z,100632.88
2024-01-05T09:09:28.945Z,100635.38
2024-01-05T09:11:55.831Z,100643.06
2024-01-05T09:14:22.727Z,100646.41
2024-01-05T09:16:49.605Z,100642.03
2024-01-05T09:19:16.611Z,100616.22
2024-01-05T09:21:43.633Z,100624.06
2024-01-05T09:24:11.630Z,100611.97
2024-01-05T09:26:38.528Z,100611.97
2024-01-05T09:29:06.150Z,100613.69
2024-01-05T09:31:33.146Z,100619.53
2024-01-05T09:34:01.022Z,100626.34
2024-01-05T09:36:27.991Z,100605.66
2024-01-05T09:38:55.351Z,100610.03
2024-01-05T09:41:22.363Z,100605.66
2024-01-05T09:43:50.150Z,100602.94
2024-01-05T09:46:18.006Z,100602.09
2024-01-05T09:48:48.541Z,100595.97
2024-01-05T09:51:21.542Z,100588.31
2024-01-05T09:53:48.491Z,100584.81
2024-01-05T09:56:16.723Z,100592.56
2024-01-05T09:58:46.246Z,100604.59
2024-01-05T10:01:39.977Z,100613.28
2024-01-05T10:04:10.192Z,100604.75
2024-01-05T10:06:37.170Z,100600.56
2024-01-05T10:09:04.225Z,100615.16
2024-01-05T10:11:43.429Z,100608.34
2024-01-05T10:14:13.383Z,100606.63
2024-01-05T10:16:40.833Z,100604.94
2024-01-05T10:19:17.104Z,100608.22
2024-01-05T10:21:48.699Z,100603.97
2024-01-05T10:24:24.457Z,100592.09
2024-01-05T10:27:08.887Z,100587.13
2024-01-05T10:29:38.995Z,100585.53
2024-01-05T10:32:20.260Z,100593.38
2024-01-05T10:34:50.273Z,100577.19
2024-01-05T10:37:20.257Z,100571.22
2024-01-05T10:39:48.775Z,100572.84
2024-01-05T10:42:23.704Z,100571.13
2024-01-05T10:44:53.722Z,100573.63
2024-01-05T10:47:23.416Z,100580.53
2024-01-05T10:49:52.565Z,100567.53
2024-01-05T10:52:23.552Z,100556.19
2024-01-05T10:54:53.294Z,100567.41
2024-01-05T10:57:22.095Z,100568.22
2024-01-05T10:59:51.357Z,100567.34
2024-01-05T11:02:25.471Z,100561.34
2024-01-05T11:05:09.311Z,100567.28
2024-01-05T11:07:37.571Z,100555.25
2024-01-05T11:10:47.115Z,100560.34
2024-01-05T11:13:56.612Z,100548.25
2024-01-05T11:17:01.986Z,100541.28
2024-01-05T11:20:25.660Z,100539.56
2024-01-05T11:22:53.236Z,100544.72
2024-01-05T11:25:21.442Z,100535.19
2024-01-05T11:27:48.698Z,100536.06
2024-01-05T11:30:15.770Z,100531.88
2024-01-05T11:32:46.378Z,100531.09
2024-01-05T11:35:22.054Z,100534.53
2024-01-05T11:37:49.372Z,100531.09
2024-01-05T11:40:33.297Z,100522.47
2024-01-05T11:43:34.497Z,100523.16
2024-01-05T11:46:01.547Z,100520.59
2024-01-05T11:48:38.730Z,100506.88
2024-01-05T11:51:13.750Z,100500.00
2024-01-05T11:53:40.970Z,100499.19
2024-01-05T11:56:09.578Z,100488.81
2024-01-05T11:58:37.849Z,100485.28
2024-01-05T12:01:11.098Z,100491.19
2024-01-05T12:03:39.879Z,100473.78
2024-01-05T12:06:11.073Z,100464.72
2024-01-05T12:08:39.743Z,100456.28
2024-01-05T12:11:09.492Z,100452.91
2024-01-05T12:13:38.910Z,100451.91
2024-01-05T12:16:10.841Z,100441.66
2024-01-05T12:18:53.229Z,100436.47
2024-01-05T12:21:22.427Z,100435.59
2024-01-05T12:23:55.717Z,100433.00
2024-01-05T12:26:23.827Z,100422.81
2024-01-05T12:28:51.533Z,100425.22
2024-01-05T12:31:19.406Z,100439.84
2024-01-05T12:33:47.618Z,100444.06
2024-01-05T12:36:27.082Z,100462.38
2024-01-05T12:38:54.096Z,100463.47
2024-01-05T12:41:21.882Z,100443.09
2024-01-05T12:43:52.680Z,100451.69
2024-01-05T12:46:21.127Z,100445.75
2024-01-05T12:48:48.404Z,100418.25
2024-01-05T12:51:23.882Z,100420.22
2024-01-05T12:54:03.959Z,100402.94
2024-01-05T12:56:31.815Z,100415.25
2024-01-05T12:58:58.927Z,100405.94
2024-01-05T13:01:26.382Z,100389.50
2024-01-05T13:04:01.145Z,100400.03
2024-01-05T13:06:31.593Z,100393.16
2024-01-05T13:08:58.989Z,100401.88
2024-01-05T13:11:26.048Z,100393.16
2024-01-05T13:13:53.913Z,100401.91
2024-01-05T13:16:21.319Z,100407.03
2024-01-05T13:18:48.932Z,100412.00
2024-01-05T13:21:16.299Z,100427.59
2024-01-05T13:23:48.024Z,100427.59
2024-01-05T13:26:15.096Z,100420.75
2024-01-05T13:28:42.330Z,100427.69
2024-01-05T13:31:09.929Z,100420.88
2024-01-05T13:33:37.160Z,100404.38
2024-01-05T13:36:04.473Z,100413.25
2024-01-05T13:38:31.519Z,100401.38
2024-01-05T13:40:58.424Z,100390.38
2024-01-05T13:43:26.533Z,100388.75
2024-01-05T13:45:55.563Z,100388.50
2024-01-05T13:48:23.230Z,100399.66
2024-01-05T13:50:50.352Z,100411.94
2024-01-05T13:53:17.289Z,100405.16
2024-01-05T13:55:44.208Z,100411.19
2024-01-05T13:58:11.099Z,100412.09
2024-01-05T14:00:38.378Z,100415.38
2024-01-05T14:03:05.738Z,100412.81
2024-01-05T14:05:32.847Z,100418.94
2024-01-05T14:08:00.512Z,100402.13
2024-01-05T14:10:27.453Z,100420.53
2024-01-05T14:12:56.669Z,100425.59
2024-01-05T14:15:23.885Z,100430.72
2024-01-05T14:17:50.862Z,100423.88
2024-01-05T14:20:18.461Z,100399.72
2024-01-05T14:22:45.434Z,100416.94
2024-01-05T14:25:12.427Z,100419.50
2024-01-05T14:27:39.368Z,100427.22
2024-01-05T14:30:07.404Z,100418.56
2024-01-05T14:32:34.536Z,100417.66
2024-01-05T14:35:06.499Z,100419.34
2024-01-05T14:37:34.244Z,100415.06
2024-01-05T14:40:01.218Z,100419.31
2024-01-05T14:42:28.258Z,100408.78
2024-01-05T14:44:55.240Z,100419.72
2024-01-05T14:47:22.644Z,100401.25
2024-01-05T14:49:51.138Z,100422.81
2024-01-05T14:52:18.153Z,100424.34
2024-01-05T14:54:45.183Z,100423.38
2024-01-05T14:57:12.156Z,100419.81
2024-01-05T14:59:39.061Z,100411.16
2024-01-05T15:02:06.198Z,100403.38
2024-01-05T15:04:33.246Z,100405.94
2024-01-05T15:07:00.494Z,100401.50
2024-01-05T15:09:28.058Z,100405.16
2024-01-05T15:11:54.990Z,100405.16
2024-01-05T15:14:21.896Z,100397.28
2024-01-05T15:16:51.195Z,100401.34
2024-01-05T15:19:18.670Z,100413.81
2024-01-05T15:21:45.757Z,100410.22
2024-01-05T15:24:12.792Z,100431.50
2024-01-05T15:26:46.850Z,100418.78
2024-01-05T15:29:14.790Z,100422.03
2024-01-05T15:31:42.014Z,100418.50
2024-01-05T15:34:09.176Z,100422.69
2024-01-05T15:36:36.227Z,100425.06
2024-01-05T15:39:03.450Z,100423.97
2024-01-05T15:41:30.457Z,100429.94
2024-01-05T15:43:58.396Z,100430.81
2024-01-05T15:46:28.099Z,100435.25
2024-01-05T15:48:56.368Z,100431.84
2024-01-05T15:51:26.434Z,100425.06
2024-01-05T15:53:56.038Z,100427.53
2024-01-05T15:56:24.529Z,100428.91
2024-01-05T15:58:51.437Z,100426.06
2024-01-05T16:01:18.381Z,100432.84
2024-01-05T16:03:45.455Z,100436.16
2024-01-05T16:06:13.024Z,100436.75
2024-01-05T16:08:40.329Z,100457.47
2024-01-05T16:11:07.408Z,100450.69
2024-01-05T16:13:34.352Z,100446.44
2024-01-05T16:16:20.292Z,100443.75
2024-01-05T16:18:50.245Z,100455.91
2024-01-05T16:21:25.971Z,100460.97
2024-01-05T16:23:54.325Z,100447.19
2024-01-05T16:26:22.676Z,100456.47
2024-01-05T16:28:49.872Z,100451.19
2024-01-05T16:31:17.758Z,100462.19
2024-01-05T16:33:45.025Z,100458.66
2024-01-05T16:36:13.524Z,100443.31
2024-01-05T16:38:40.652Z,100430.38
2024-01-05T16:41:09.968Z,100436.53
2024-01-05T16:43:38.421Z,100430.38
2024-01-05T16:46:05.558Z,100429.41
2024-01-05T16:48:32.773Z,100411.94
2024-01-05T16:50:59.837Z,100412.59
2024-01-05T16:53:27.087Z,100409.28
2024-01-05T16:55:54.075Z,100415.97
2024-01-05T16:58:21.002Z,100397.44
2024-01-05T17:00:48.149Z,100404.38
2024-01-05T17:03:15.719Z,100381.84
2024-01-05T17:05:45.540Z,100408.22
2024-01-05T17:08:12.555Z,100414.28
2024-01-05T17:10:39.452Z,100416.97
2024-01-05T17:13:06.369Z,100424.66
2024-01-05T17:15:33.331Z,100428.97
2024-01-05T17:18:00.430Z,100416.25
2024-01-05T17:20:28.827Z,100429.81
2024-01-05T17:22:56.211Z,100427.81
2024-01-05T17:25:23.139Z,100428.84
2024-01-05T17:27:50.119Z,100445.97
2024-01-05T17:30:17.351Z,100438.16
2024-01-05T17:32:46.112Z,100439.03
2024-01-05T17:35:13.474Z,100439.94
2024-01-05T17:37:40.391Z,100429.81
2024-01-05T17:40:08.860Z,100432.53
2024-01-05T17:42:36.313Z,100436.03
2024-01-05T17:45:04.024Z,100438.59
2024-01-05T17:47:31.486Z,100448.97
2024-01-05T17:49:59.257Z,100447.34
2024-01-05T17:52:27.083Z,100446.59
2024-01-05T17:54:54.352Z,100456.19
2024-01-05T17:57:24.984Z,100454.38
2024-01-05T17:59:52.776Z,100459.50
2024-01-05T18:02:19.846Z,100462.72
2024-01-05T18:04:47.042Z,100463.53
2024-01-05T18:07:14.436Z,100464.41
2024-01-05T18:09:42.993Z,100467.91
2024-01-05T18:12:10.450Z,100462.47
2024-01-05T18:14:39.025Z,100452.16
2024-01-05T18:17:06.237Z,100464.28
2024-01-05T18:19:33.371Z,100476.31
2024-01-05T18:22:00.542Z,100464.41
2024-01-05T18:24:27.602Z,100457.63
2024-01-05T18:26:54.602Z,100457.69
2024-01-05T18:29:28.540Z,100465.41
2024-01-05T18:31:59.520Z,100453.38
2024-01-05T18:34:27.240Z,100456.19
2024-01-05T18:36:54.844Z,100451.09
2024-01-05T18:39:22.351Z,100460.59
2024-01-05T18:41:49.437Z,100465.91
2024-01-05T18:44:16.354Z,100468.47
2024-01-05T18:46:43.794Z,100456.56
2024-01-05T18:49:11.172Z,100463.41
2024-01-05T18:51:38.353Z,100458.19
2024-01-05T18:54:05.848Z,100461.59
2024-01-05T18:56:33.741Z,100456.47
2024-01-05T18:59:00.959Z,100459.03
2024-01-05T19:01:28.051Z,100456.34
2024-01-05T19:03:55.224Z,100457.06
2024-01-05T19:06:22.415Z,100466.44
2024-01-05T19:08:49.391Z,100468.16
2024-01-05T19:11:16.394Z,100451.53
2024-01-05T19:13:44.235Z,100444.41
2024-01-05T19:16:12.382Z,100460.31
2024-01-05T19:18:39.721Z,100468.91
2024-01-05T19:21:07.008Z,100450.03
2024-01-05T19:23:34.633Z,100462.28
2024-01-05T19:26:02.507Z,100449.25
2024-01-05T19:28:29.477Z,100451.91
2024-01-05T19:30:57.167Z,100457.22
2024-01-05T19:33:24.737Z,100469.22
2024-01-05T19:35:51.805Z,100465.78
2024-01-05T19:38:19.168Z,100472.63
2024-01-05T19:40:46.324Z,100468.25
2024-01-05T19:43:13.782Z,100484.44
2024-01-05T19:45:42.442Z,100469.78
2024-01-05T19:48:09.854Z,100472.44
2024-01-05T19:50:38.424Z,100469.88
2024-01-05T19:53:06.303Z,100465.72
2024-01-05T19:55:34.048Z,100476.13
2024-01-05T19:58:01.278Z,100474.31
2024-01-05T20:00:28.978Z,100486.31
2024-01-05T20:02:56.105Z,100488.13
2024-01-05T20:05:24.484Z,100477.84
2024-01-05T20:07:51.857Z,100485.81
2024-01-05T20:10:19.025Z,100485.84
2024-01-05T20:12:47.296Z,100487.59
2024-01-05T20:15:15.029Z,100483.16
2024-01-05T20:17:42.362Z,100485.91
2024-01-05T20:20:10.552Z,100481.72
2024-01-05T20:22:41.477Z,100490.31
2024-01-05T20:25:09.779Z,100485.25
2024-01-05T20:27:40.978Z,100483.50
2024-01-05T20:30:10.530Z,100490.31
2024-01-05T20:32:37.893Z,100485.06
2024-01-05T20:35:07.115Z,100484.31
2024-01-05T20:37:34.490Z,100485.94
2024-01-05T20:40:01.422Z,100484.28
2024-01-05T20:42:28.482Z,100483.50
2024-01-05T20:44:55.907Z,100467.97
2024-01-05T20:47:22.928Z,100474.00
2024-01-05T20:49:50.315Z,100484.97
2024-01-05T20:52:17.283Z,100477.19
2024-01-05T20:54:44.247Z,100483.34
2024-01-05T20:57:11.365Z,100482.63
2024-01-05T20:59:42.389Z,100482.69
2024-01-05T21:02:09.564Z,100480.13
2024-01-05T21:04:36.857Z,100478.47
2024-01-05T21:07:07.203Z,100462.16
2024-01-05T21:09:35.818Z,100468.03
2024-01-05T21:12:02.750Z,100471.31
2024-01-05T21:14:30.456Z,100463.41
2024-01-05T21:16:57.370Z,100457.13
2024-01-05T21:19:24.527Z,100467.53
2024-01-05T21:21:53.280Z,100464.09
2024-01-05T21:24:20.305Z,100454.66
2024-01-05T21:26:47.212Z,100458.16
2024-01-05T21:29:15.734Z,100477.09
2024-01-05T21:31:51.030Z,100471.97
2024-01-05T21:34:19.195Z,100474.59
2024-01-05T21:36:46.498Z,100484.09
2024-01-05T21:39:17.420Z,100479.94
2024-01-05T21:41:46.392Z,100483.44
2024-01-05T21:44:14.077Z,100480.00
2024-01-05T21:46:41.022Z,100480.00
2024-01-05T21:49:09.612Z,100473.72
2024-01-05T21:51:37.376Z,100479.16
2024-01-05T21:54:04.973Z,100485.03
2024-01-05T21:56:32.050Z,100490.28
2024-01-05T21:58:59.219Z,100485.06
2024-01-05T22:01:26.206Z,100493.59
2024-01-05T22:03:53.242Z,100487.59
2024-01-05T22:06:20.412Z,100483.34
2024-01-05T22:08:48.772Z,100478.09
2024-01-05T22:11:16.299Z,100480.44
2024-01-05T22:13:43.633Z,100493.16
2024-01-05T22:16:18.201Z,100483.75
2024-01-05T22:18:50.568Z,100486.25
2024-01-05T22:21:18.324Z,100487.94
2024-01-05T22:23:45.695Z,100485.34
2024-01-05T22:26:23.309Z,100489.56
2024-01-05T22:28:50.525Z,100484.31
2024-01-05T22:31:17.589Z,100483.56
2024-01-05T22:33:44.896Z,100485.34
2024-01-05T22:36:13.892Z,100482.72
2024-01-05T22:38:41.368Z,100486.03
2024-01-05T22:41:10.156Z,100484.41
2024-01-05T22:43:38.639Z,100481.84
2024-01-05T22:46:07.026Z,100478.22
2024-01-05T22:48:36.413Z,100488.50
2024-01-05T22:51:30.843Z,100497.81
2024-01-05T22:54:04.574Z,100498.69
2024-01-05T22:56:31.539Z,100506.56
2024-01-05T22:58:58.448Z,100503.31
2024-01-05T23:01:26.307Z,100513.59
2024-01-05T23:03:53.527Z,100515.41
2024-01-05T23:06:22.268Z,100521.41
2024-01-05T23:08:49.229Z,100509.22
2024-01-05T23:11:16.239Z,100510.00
2024-01-05T23:13:44.806Z,100511.88
2024-01-05T23:16:12.141Z,100507.53
2024-01-05T23:18:39.200Z,100515.31
2024-01-05T23:21:06.318Z,100511.81
2024-01-05T23:23:35.732Z,100515.38
2024-01-05T23:26:02.626Z,100511.97
2024-01-05T23:28:29.521Z,100516.34
2024-01-05T23:30:56.466Z,100524.91
2024-01-05T23:33:23.849Z,100517.19
2024-01-05T23:35:50.952Z,100524.91
2024-01-05T23:38:18.016Z,100529.13
2024-01-05T23:40:44.980Z,100532.59
2024-01-05T23:43:11.891Z,100537.72
2024-01-05T23:45:38.854Z,100539.38
2024-01-05T23:48:06.235Z,100542.78
2024-01-05T23:50:33.222Z,100538.59
2024-01-05T23:53:02.432Z,100542.97
2024-01-05T23:55:30.800Z,100540.38
2024-01-05T23:57:57.749Z,100543.91
